createdAt,value
2019-01-25T00:02:44.315Z,71.07
2019-01-25T00:05:48.764Z,71.00
2019-01-25T00:08:53.202Z,71.27
2019-01-25T00:11:57.947Z,69.77
2019-01-25T00:15:02.404Z,68.64
2019-01-25T00:18:07.504Z,68.58
2019-01-25T00:21:11.953Z,68.37
2019-01-25T00:24:16.391Z,68.45
2019-01-25T00:27:20.907Z,68.06
2019-01-25T00:30:25.424Z,67.80
2019-01-25T00:33:29.891Z,67.43
2019-01-25T00:36:34.345Z,67.49
2019-01-25T00:39:39.197Z,68.11
2019-01-25T00:42:43.937Z,68.42
2019-01-25T00:45:48.396Z,67.64
2019-01-25T00:48:52.859Z,68.12
2019-01-25T00:51:57.323Z,68.36
2019-01-25T00:55:01.775Z,68.90
2019-01-25T00:58:06.873Z,68.83
2019-01-25T01:01:11.706Z,69.04
2019-01-25T01:04:16.436Z,69.14
2019-01-25T01:07:20.967Z,69.69
2019-01-25T01:10:25.700Z,69.23
2019-01-25T01:13:30.149Z,69.05
2019-01-25T01:16:34.976Z,69.84
2019-01-25T01:19:39.394Z,69.40
2019-01-25T01:22:43.849Z,69.97
2019-01-25T01:25:48.737Z,68.51
2019-01-25T01:28:53.453Z,68.20
2019-01-25T01:31:57.912Z,68.87
2019-01-25T01:35:02.610Z,68.61
2019-01-25T01:38:07.407Z,67.31
2019-01-25T01:41:11.874Z,66.39
2019-01-25T01:44:16.316Z,65.14
2019-01-25T01:47:21.017Z,65.24
2019-01-25T01:50:25.466Z,66.17
2019-01-25T01:53:29.926Z,66.50
2019-01-25T01:56:34.413Z,67.57
2019-01-25T01:59:39.120Z,68.14
2019-01-25T02:02:43.592Z,68.81
2019-01-25T02:05:48.031Z,68.71
2019-01-25T02:08:52.796Z,67.77
2019-01-25T02:11:57.270Z,68.75
2019-01-25T02:15:01.709Z,68.92
2019-01-25T02:18:06.335Z,69.40
2019-01-25T02:21:11.208Z,68.87
2019-01-25T02:24:15.940Z,68.93
2019-01-25T02:27:20.401Z,68.54
2019-01-25T02:30:26.608Z,68.95
2019-01-25T02:33:31.052Z,69.90
2019-01-25T02:36:35.512Z,69.73
2019-01-25T02:39:39.956Z,70.09
2019-01-25T02:42:44.574Z,70.18
2019-01-25T02:45:49.361Z,71.04
2019-01-25T02:48:54.042Z,69.22
2019-01-25T02:51:58.842Z,69.23
2019-01-25T02:55:03.284Z,69.00
2019-01-25T02:58:07.833Z,68.93
2019-01-25T03:01:12.243Z,69.04
2019-01-25T03:04:16.688Z,68.92
2019-01-25T03:07:21.449Z,68.53
2019-01-25T03:10:28.931Z,67.40
2019-01-25T03:13:32.337Z,65.94
2019-01-25T03:16:37.082Z,66.31
2019-01-25T03:19:41.521Z,66.33
2019-01-25T03:22:46.015Z,67.21
2019-01-25T03:25:50.463Z,65.07
2019-01-25T03:28:54.912Z,64.12
2019-01-25T03:31:59.366Z,64.39
2019-01-25T03:35:05.246Z,64.74
2019-01-25T03:38:09.695Z,63.95
2019-01-25T03:41:14.521Z,63.92
2019-01-25T03:44:18.984Z,64.72
2019-01-25T03:47:23.439Z,64.46
2019-01-25T03:50:30.287Z,64.74
2019-01-25T03:53:34.736Z,65.66
2019-01-25T03:56:39.210Z,65.56
2019-01-25T03:59:43.662Z,65.36
2019-01-25T04:02:48.460Z,64.08
2019-01-25T04:05:52.884Z,65.68
2019-01-25T04:08:57.342Z,65.84
2019-01-25T04:12:02.124Z,64.88
2019-01-25T04:15:13.841Z,66.23
2019-01-25T04:18:18.290Z,65.83
2019-01-25T04:21:22.730Z,67.65
2019-01-25T04:24:27.180Z,67.82
2019-01-25T04:27:31.926Z,67.75
2019-01-25T04:30:36.692Z,67.39
2019-01-25T04:33:41.385Z,69.22
2019-01-25T04:36:45.826Z,69.94
2019-01-25T04:39:50.284Z,70.07
2019-01-25T04:42:54.909Z,70.44
2019-01-25T04:45:59.348Z,71.13
2019-01-25T04:49:04.126Z,71.30
2019-01-25T04:52:13.403Z,71.73
2019-01-25T04:55:32.765Z,72.36
2019-01-25T04:58:37.196Z,72.15
2019-01-25T05:01:41.637Z,72.21
2019-01-25T05:04:46.086Z,72.35
2019-01-25T05:07:50.537Z,72.11
2019-01-25T05:10:55.255Z,71.56
2019-01-25T05:13:59.716Z,71.86
2019-01-25T05:17:04.279Z,71.69
2019-01-25T05:20:09.571Z,72.22
2019-01-25T05:23:14.287Z,72.51
2019-01-25T05:26:18.867Z,72.78
2019-01-25T05:29:26.191Z,72.98
2019-01-25T05:32:30.929Z,72.85
2019-01-25T05:35:37.417Z,72.23
2019-01-25T05:38:46.196Z,72.32
2019-01-25T05:41:52.909Z,72.61
2019-01-25T05:44:57.640Z,72.59
2019-01-25T05:48:02.375Z,72.02
2019-01-25T05:51:07.357Z,72.71
2019-01-25T05:54:11.851Z,73.47
2019-01-25T05:57:16.293Z,73.78
2019-01-25T06:00:25.623Z,74.11
2019-01-25T06:03:30.067Z,73.83
2019-01-25T06:06:34.512Z,73.63
2019-01-25T06:09:39.284Z,73.89
2019-01-25T06:12:43.735Z,72.85
2019-01-25T06:15:48.187Z,72.53
2019-01-25T06:18:52.632Z,73.44
2019-01-25T06:21:57.901Z,72.87
2019-01-25T06:25:02.358Z,72.82
2019-01-25T06:28:07.968Z,72.28
2019-01-25T06:31:14.540Z,72.62
2019-01-25T06:34:18.994Z,73.20
2019-01-25T06:37:23.694Z,74.34
2019-01-25T06:40:28.424Z,74.44
2019-01-25T06:43:32.864Z,74.47
2019-01-25T06:46:37.323Z,74.61
2019-01-25T06:49:41.775Z,75.59
2019-01-25T06:52:46.523Z,75.56
2019-01-25T06:55:50.969Z,75.78
2019-01-25T06:58:57.315Z,76.54
2019-01-25T07:02:03.638Z,76.85
2019-01-25T07:05:09.494Z,77.62
2019-01-25T07:08:15.912Z,78.28
2019-01-25T07:11:20.356Z,78.75
2019-01-25T07:14:24.815Z,77.89
2019-01-25T07:17:29.263Z,77.54
2019-01-25T07:20:33.710Z,77.72
2019-01-25T07:23:38.440Z,77.00
2019-01-25T07:26:42.893Z,77.62
2019-01-25T07:29:47.598Z,77.71
2019-01-25T07:32:52.111Z,77.43
2019-01-25T07:35:56.959Z,77.00
2019-01-25T07:39:04.832Z,77.50
2019-01-25T07:42:09.619Z,77.67
2019-01-25T07:45:15.504Z,77.44
2019-01-25T07:48:20.155Z,76.85
2019-01-25T07:51:24.914Z,77.50
2019-01-25T07:54:29.762Z,78.03
2019-01-25T07:57:34.680Z,78.76
2019-01-25T08:00:39.156Z,79.36
2019-01-25T08:03:43.829Z,79.15
2019-01-25T08:06:48.286Z,78.71
2019-01-25T08:09:52.985Z,78.57
2019-01-25T08:12:57.486Z,77.84
2019-01-25T08:16:03.124Z,77.87
2019-01-25T08:19:07.582Z,77.08
2019-01-25T08:22:12.445Z,77.08
2019-01-25T08:25:17.457Z,76.66
2019-01-25T08:28:22.192Z,76.54
2019-01-25T08:31:26.646Z,75.83
2019-01-25T08:34:31.341Z,76.41
2019-01-25T08:37:35.800Z,76.18
2019-01-25T08:40:41.964Z,75.59
2019-01-25T08:43:46.581Z,74.88
2019-01-25T08:46:50.986Z,74.22
2019-01-25T08:49:57.874Z,73.22
2019-01-25T08:53:01.932Z,72.00
2019-01-25T08:56:06.406Z,73.25
2019-01-25T08:59:10.884Z,72.75
2019-01-25T09:02:15.296Z,71.97
2019-01-25T09:05:20.474Z,72.06
2019-01-25T09:08:24.928Z,71.89
2019-01-25T09:11:29.374Z,70.99
2019-01-25T09:14:33.824Z,70.41
2019-01-25T09:17:38.279Z,68.49
2019-01-25T09:20:42.727Z,69.23
2019-01-25T09:23:47.445Z,68.71
2019-01-25T09:26:51.891Z,67.97
2019-01-25T09:29:56.326Z,66.95
2019-01-25T09:33:00.775Z,65.85
2019-01-25T09:36:05.334Z,65.40
2019-01-25T09:39:10.021Z,64.44
2019-01-25T09:42:14.699Z,64.19
2019-01-25T09:45:19.133Z,63.48
2019-01-25T09:48:23.857Z,63.57
2019-01-25T09:51:28.287Z,62.66
2019-01-25T09:54:33.011Z,61.21
2019-01-25T09:57:37.741Z,61.53
2019-01-25T10:00:56.701Z,61.42
2019-01-25T10:04:01.141Z,62.89
2019-01-25T10:07:05.738Z,62.31
2019-01-25T10:10:11.127Z,62.08
2019-01-25T10:13:15.570Z,62.60
2019-01-25T10:16:20.011Z,63.30
2019-01-25T10:19:24.779Z,62.93
2019-01-25T10:22:29.224Z,62.96
2019-01-25T10:25:33.656Z,62.69
2019-01-25T10:28:38.357Z,62.29
2019-01-25T10:31:42.797Z,62.71
2019-01-25T10:34:47.510Z,62.27
2019-01-25T10:37:53.157Z,62.34
2019-01-25T10:40:57.587Z,61.71
2019-01-25T10:44:02.045Z,63.12
2019-01-25T10:47:06.750Z,62.34
2019-01-25T10:50:11.678Z,63.10
2019-01-25T10:53:16.125Z,62.73
2019-01-25T10:56:20.556Z,62.56
2019-01-25T10:59:25.257Z,62.93
2019-01-25T11:02:29.684Z,62.94
2019-01-25T11:05:34.196Z,63.86
2019-01-25T11:08:38.939Z,64.13
2019-01-25T11:11:43.380Z,63.48
2019-01-25T11:14:47.824Z,62.30
2019-01-25T11:17:52.431Z,63.46
2019-01-25T11:20:56.872Z,63.06
2019-01-25T11:24:01.570Z,63.98
2019-01-25T11:27:06.302Z,63.86
2019-01-25T11:30:15.464Z,64.54
2019-01-25T11:33:19.896Z,66.38
2019-01-25T11:36:24.336Z,65.51
2019-01-25T11:39:29.120Z,65.39
2019-01-25T11:42:33.553Z,66.41
2019-01-25T11:45:38.069Z,65.42
2019-01-25T11:48:42.508Z,66.28
2019-01-25T11:51:47.218Z,65.29
2019-01-25T11:54:51.660Z,66.15
2019-01-25T11:57:56.375Z,66.78
2019-01-25T12:01:00.818Z,65.16
2019-01-25T12:04:07.578Z,64.59
2019-01-25T12:07:12.003Z,63.88
2019-01-25T12:10:20.624Z,63.34
2019-01-25T12:13:25.508Z,63.06
2019-01-25T12:16:30.198Z,63.86
2019-01-25T12:19:34.666Z,63.27
2019-01-25T12:22:39.528Z,64.47
2019-01-25T12:25:44.072Z,64.69
2019-01-25T12:28:49.104Z,64.77
2019-01-25T12:31:53.626Z,64.90
2019-01-25T12:34:58.071Z,65.56
2019-01-25T12:38:02.785Z,65.26
2019-01-25T12:41:07.637Z,66.64
2019-01-25T12:44:12.057Z,66.12
2019-01-25T12:47:16.771Z,66.37
2019-01-25T12:50:28.442Z,66.54
2019-01-25T12:53:34.320Z,67.07
2019-01-25T12:56:39.050Z,67.72
2019-01-25T12:59:43.785Z,67.69
2019-01-25T13:02:48.219Z,67.88
2019-01-25T13:05:52.798Z,67.36
2019-01-25T13:08:57.234Z,66.73
2019-01-25T13:12:01.668Z,66.90
2019-01-25T13:15:09.328Z,68.23
2019-01-25T13:18:13.928Z,67.86
2019-01-25T13:21:18.373Z,67.68
2019-01-25T13:24:22.809Z,67.20
2019-01-25T13:27:27.241Z,67.07
2019-01-25T13:30:32.619Z,67.71
2019-01-25T13:33:37.464Z,67.97
2019-01-25T13:36:41.902Z,67.34
2019-01-25T13:39:46.351Z,67.11
2019-01-25T13:42:50.781Z,66.52
2019-01-25T13:45:55.219Z,66.83
2019-01-25T13:48:59.650Z,64.77
2019-01-25T13:52:04.092Z,65.06
2019-01-25T13:55:12.061Z,65.81
2019-01-25T13:58:16.491Z,65.99
2019-01-25T14:01:21.269Z,65.13
2019-01-25T14:04:25.711Z,65.70
2019-01-25T14:07:30.433Z,65.68
2019-01-25T14:10:36.985Z,65.96
2019-01-25T14:13:46.686Z,65.69
2019-01-25T14:16:47.890Z,65.43
2019-01-25T14:19:52.619Z,65.93
2019-01-25T14:22:57.049Z,66.60
2019-01-25T14:26:01.492Z,66.05
2019-01-25T14:29:07.165Z,66.58
2019-01-25T14:32:11.672Z,68.06
2019-01-25T14:35:16.119Z,66.61
2019-01-25T14:38:20.805Z,67.87
2019-01-25T14:41:25.250Z,67.92
2019-01-25T14:44:29.958Z,68.03
2019-01-25T14:47:34.408Z,68.06
2019-01-25T14:50:39.109Z,68.18
2019-01-25T14:53:43.841Z,68.78
2019-01-25T14:56:48.580Z,70.05
2019-01-25T14:59:53.305Z,70.15
2019-01-25T15:02:57.754Z,70.92
2019-01-25T15:06:02.194Z,70.15
2019-01-25T15:09:09.508Z,68.60
2019-01-25T15:12:13.953Z,68.75
2019-01-25T15:15:18.379Z,68.41
2019-01-25T15:18:23.120Z,67.70
2019-01-25T15:21:27.564Z,67.86
2019-01-25T15:24:31.998Z,67.99
2019-01-25T15:27:36.695Z,67.55
2019-01-25T15:30:41.142Z,69.13
2019-01-25T15:33:45.852Z,69.96
2019-01-25T15:36:50.285Z,68.44
2019-01-25T15:39:54.874Z,67.28
2019-01-25T15:42:59.317Z,68.03
2019-01-25T15:46:03.755Z,67.51
2019-01-25T15:49:08.188Z,67.27
2019-01-25T15:52:12.908Z,68.04
2019-01-25T15:55:18.373Z,67.63
2019-01-25T15:58:23.084Z,67.29
2019-01-25T16:01:27.819Z,67.31
2019-01-25T16:04:34.939Z,66.50
2019-01-25T16:07:39.022Z,67.06
2019-01-25T16:10:43.746Z,66.34
2019-01-25T16:13:49.831Z,66.98
2019-01-25T16:16:54.743Z,67.09
2019-01-25T16:19:59.173Z,67.97
2019-01-25T16:23:03.681Z,67.77
2019-01-25T16:26:08.424Z,67.05
2019-01-25T16:29:12.861Z,67.05
2019-01-25T16:32:17.580Z,66.98
2019-01-25T16:35:22.317Z,67.16
2019-01-25T16:38:27.037Z,66.79
2019-01-25T16:41:31.782Z,66.14
2019-01-25T16:44:36.369Z,66.67
2019-01-25T16:47:41.235Z,67.66
2019-01-25T16:50:45.675Z,67.32
2019-01-25T16:53:50.118Z,68.02
2019-01-25T16:56:54.893Z,67.97
2019-01-25T16:59:59.648Z,67.52
2019-01-25T17:03:04.498Z,68.13
2019-01-25T17:06:09.096Z,68.69
2019-01-25T17:09:13.842Z,69.52
2019-01-25T17:12:18.273Z,69.30
2019-01-25T17:15:22.991Z,68.34
2019-01-25T17:18:27.719Z,67.91
2019-01-25T17:21:32.153Z,67.38
2019-01-25T17:24:37.246Z,67.71
2019-01-25T17:27:41.912Z,67.28
2019-01-25T17:30:46.648Z,67.05
2019-01-25T17:33:51.101Z,67.36
2019-01-25T17:36:55.616Z,66.82
2019-01-25T17:40:00.451Z,66.70
2019-01-25T17:43:05.446Z,66.94
2019-01-25T17:46:10.201Z,67.02
2019-01-25T17:49:14.773Z,66.59
2019-01-25T17:52:19.658Z,66.88
2019-01-25T17:55:24.287Z,66.70
2019-01-25T17:58:28.915Z,66.84
2019-01-25T18:01:33.351Z,66.78
2019-01-25T18:04:38.005Z,66.93
2019-01-25T18:07:44.239Z,66.12
2019-01-25T18:10:49.147Z,66.80
2019-01-25T18:13:53.555Z,66.76
2019-01-25T18:16:58.633Z,65.86
2019-01-25T18:20:03.255Z,65.94
2019-01-25T18:23:07.674Z,66.37
2019-01-25T18:26:12.186Z,65.96
2019-01-25T18:29:17.047Z,66.28
2019-01-25T18:32:21.840Z,66.26
2019-01-25T18:35:26.299Z,66.92
2019-01-25T18:38:31.028Z,67.85
2019-01-25T18:41:35.505Z,66.85
2019-01-25T18:44:39.936Z,66.51
2019-01-25T18:47:44.435Z,65.94
2019-01-25T18:50:49.134Z,65.50
2019-01-25T18:53:53.868Z,65.09
2019-01-25T18:56:58.702Z,65.28
2019-01-25T19:00:03.422Z,64.88
2019-01-25T19:03:08.146Z,64.16
2019-01-25T19:06:12.889Z,64.36
2019-01-25T19:09:17.563Z,64.38
2019-01-25T19:12:22.509Z,64.02
2019-01-25T19:15:30.767Z,64.26
2019-01-25T19:18:35.515Z,64.31
2019-01-25T19:21:39.956Z,64.44
2019-01-25T19:24:44.397Z,63.44
2019-01-25T19:27:48.951Z,63.63
2019-01-25T19:30:54.429Z,63.29
2019-01-25T19:33:58.851Z,63.72
2019-01-25T19:37:03.299Z,63.04
2019-01-25T19:40:30.428Z,63.94
2019-01-25T19:43:34.864Z,63.49
2019-01-25T19:46:39.306Z,63.47
2019-01-25T19:49:44.007Z,63.53
2019-01-25T19:52:48.734Z,62.97
2019-01-25T19:55:53.167Z,63.22
2019-01-25T19:58:57.603Z,63.08
2019-01-25T20:02:02.314Z,63.32
2019-01-25T20:05:11.838Z,62.71
2019-01-25T20:08:16.346Z,63.09
2019-01-25T20:11:21.105Z,63.17
2019-01-25T20:14:27.439Z,63.72
2019-01-25T20:17:32.205Z,63.06
2019-01-25T20:20:39.811Z,63.01
2019-01-25T20:23:44.290Z,62.86
2019-01-25T20:26:49.067Z,63.53
2019-01-25T20:29:53.801Z,63.03
2019-01-25T20:32:59.081Z,62.65
2019-01-25T20:36:03.585Z,62.28
2019-01-25T20:39:08.862Z,61.99
2019-01-25T20:42:13.903Z,62.92
2019-01-25T20:45:27.285Z,62.55
2019-01-25T20:48:33.432Z,62.33
2019-01-25T20:51:38.134Z,62.67
2019-01-25T20:54:42.551Z,62.91
2019-01-25T20:57:47.237Z,62.75
2019-01-25T21:00:52.032Z,61.89
2019-01-25T21:03:56.463Z,62.46
2019-01-25T21:07:00.965Z,62.44
2019-01-25T21:10:10.254Z,62.31
2019-01-25T21:13:14.691Z,63.04
2019-01-25T21:16:19.162Z,62.94
2019-01-25T21:19:23.919Z,62.80
2019-01-25T21:22:28.661Z,63.02
2019-01-25T21:25:33.427Z,62.93
2019-01-25T21:28:37.861Z,62.65
2019-01-25T21:31:42.566Z,62.74
2019-01-25T21:34:47.273Z,62.50
2019-01-25T21:37:51.757Z,62.76
2019-01-25T21:40:56.181Z,62.93
2019-01-25T21:44:00.947Z,62.80
2019-01-25T21:47:05.888Z,62.50
2019-01-25T21:50:28.615Z,62.29
2019-01-25T21:53:33.049Z,62.78
2019-01-25T21:56:37.796Z,63.09
2019-01-25T21:59:42.323Z,62.48
2019-01-25T22:02:46.781Z,62.81
2019-01-25T22:05:51.205Z,61.96
2019-01-25T22:08:55.966Z,62.98
2019-01-25T22:12:00.417Z,61.93
2019-01-25T22:15:07.900Z,61.53
2019-01-25T22:18:12.873Z,61.72
2019-01-25T22:21:17.303Z,61.44
2019-01-25T22:24:22.138Z,61.46
2019-01-25T22:27:26.849Z,61.79
2019-01-25T22:30:31.352Z,61.97
2019-01-25T22:33:36.107Z,62.57
2019-01-25T22:36:40.843Z,62.69
2019-01-25T22:39:45.292Z,62.11
2019-01-25T22:42:50.001Z,62.55
2019-01-25T22:45:58.730Z,62.52
2019-01-25T22:49:00.647Z,62.57
2019-01-25T22:52:05.345Z,62.27
2019-01-25T22:55:14.431Z,63.26
2019-01-25T22:58:19.167Z,62.59
2019-01-25T23:01:25.607Z,62.35
2019-01-25T23:04:34.748Z,62.65
2019-01-25T23:07:39.197Z,63.09
2019-01-25T23:10:43.927Z,63.17
2019-01-25T23:13:48.376Z,63.36
2019-01-25T23:16:52.977Z,63.66
2019-01-25T23:19:57.414Z,64.25
2019-01-25T23:23:01.838Z,64.81
2019-01-25T23:26:06.281Z,64.81
2019-01-25T23:29:10.714Z,65.48
2019-01-25T23:32:15.144Z,65.66
2019-01-25T23:35:19.576Z,65.87
2019-01-25T23:38:24.007Z,66.54
2019-01-25T23:41:28.447Z,66.13
2019-01-25T23:44:33.204Z,65.70
2019-01-25T23:47:37.945Z,64.92
2019-01-25T23:50:42.372Z,65.03
2019-01-25T23:53:46.820Z,64.94
2019-01-25T23:56:51.615Z,64.65
2019-01-25T23:59:56.342Z,64.80
